sensor_id;sensor_type;location;lat;lon;timestamp;pressure;altitude;pressure_sealevel;temperature;humidity
38466;BME280;24244;51.950;5.902;2023-01-27T00:00:57;102422.75;;;5.66;79.93
38466;BME280;24244;51.950;5.902;2023-01-27T00:03:23;102413.06;;;5.67;80.05
38466;BME280;24244;51.950;5.902;2023-01-27T00:05:50;102422.41;;;5.71;79.83
38466;BME280;24244;51.950;5.902;2023-01-27T00:08:17;102413.75;;;5.69;80.02
38466;BME280;24244;51.950;5.902;2023-01-27T00:11:03;102414.00;;;5.66;79.72
38466;BME280;24244;51.950;5.902;2023-01-27T00:13:49;102413.38;;;5.62;79.71
38466;BME280;24244;51.950;5.902;2023-01-27T00:16:17;102418.78;;;5.61;80.02
38466;BME280;24244;51.950;5.902;2023-01-27T00:18:44;102416.16;;;5.61;79.91
38466;BME280;24244;51.950;5.902;2023-01-27T00:21:10;102416.25;;;5.59;79.77
38466;BME280;24244;51.950;5.902;2023-01-27T00:23:56;102412.88;;;5.57;79.88
38466;BME280;24244;51.950;5.902;2023-01-27T00:26:41;102412.16;;;5.55;79.95
38466;BME280;24244;51.950;5.902;2023-01-27T00:29:08;102416.47;;;5.56;79.97
38466;BME280;24244;51.950;5.902;2023-01-27T00:31:36;102412.97;;;5.56;80.10
38466;BME280;24244;51.950;5.902;2023-01-27T00:34:22;102418.88;;;5.59;80.08
38466;BME280;24244;51.950;5.902;2023-01-27T00:36:49;102409.19;;;5.60;80.07
38466;BME280;24244;51.950;5.902;2023-01-27T00:39:16;102405.59;;;5.61;79.67
38466;BME280;24244;51.950;5.902;2023-01-27T00:41:43;102412.66;;;5.60;79.67
38466;BME280;24244;51.950;5.902;2023-01-27T00:44:10;102417.94;;;5.60;80.00
38466;BME280;24244;51.950;5.902;2023-01-27T00:46:41;102410.03;;;5.60;80.03
38466;BME280;24244;51.950;5.902;2023-01-27T00:49:09;102410.03;;;5.60;80.01
38466;BME280;24244;51.950;5.902;2023-01-27T00:51:36;102410.03;;;5.60;79.83
38466;BME280;24244;51.950;5.902;2023-01-27T00:54:04;102416.25;;;5.59;79.94
38466;BME280;24244;51.950;5.902;2023-01-27T00:56:31;102427.03;;;5.56;79.58
38466;BME280;24244;51.950;5.902;2023-01-27T00:58:58;102418.59;;;5.51;79.80
38466;BME280;24244;51.950;5.902;2023-01-27T01:01:25;102421.25;;;5.51;79.73
38466;BME280;24244;51.950;5.902;2023-01-27T01:03:56;102424.00;;;5.49;79.71
38466;BME280;24244;51.950;5.902;2023-01-27T01:06:24;102427.56;;;5.48;79.87
38466;BME280;24244;51.950;5.902;2023-01-27T01:08:52;102431.31;;;5.46;79.79
38466;BME280;24244;51.950;5.902;2023-01-27T01:11:23;102434.03;;;5.44;79.80
38466;BME280;24244;51.950;5.902;2023-01-27T01:13:50;102434.16;;;5.43;79.92
38466;BME280;24244;51.950;5.902;2023-01-27T01:16:23;102435.94;;;5.42;79.91
38466;BME280;24244;51.950;5.902;2023-01-27T01:18:52;102438.69;;;5.41;79.83
38466;BME280;24244;51.950;5.902;2023-01-27T01:21:19;102435.44;;;5.37;79.87
38466;BME280;24244;51.950;5.902;2023-01-27T01:23:46;102435.34;;;5.39;79.85
38466;BME280;24244;51.950;5.902;2023-01-27T01:26:15;102437.84;;;5.40;80.06
38466;BME280;24244;51.950;5.902;2023-01-27T01:28:44;102445.16;;;5.37;79.97
38466;BME280;24244;51.950;5.902;2023-01-27T01:31:19;102440.94;;;5.34;80.17
38466;BME280;24244;51.950;5.902;2023-01-27T01:33:46;102450.53;;;5.35;80.00
38466;BME280;24244;51.950;5.902;2023-01-27T01:36:17;102447.78;;;5.37;79.91
38466;BME280;24244;51.950;5.902;2023-01-27T01:38:44;102447.56;;;5.40;79.99
38466;BME280;24244;51.950;5.902;2023-01-27T01:41:14;102451.25;;;5.37;79.80
38466;BME280;24244;51.950;5.902;2023-01-27T01:43:43;102456.66;;;5.36;79.68
38466;BME280;24244;51.950;5.902;2023-01-27T01:46:12;102449.78;;;5.33;79.77
38466;BME280;24244;51.950;5.902;2023-01-27T01:48:40;102455.78;;;5.35;80.09
38466;BME280;24244;51.950;5.902;2023-01-27T01:51:12;102454.84;;;5.36;79.78
38466;BME280;24244;51.950;5.902;2023-01-27T01:53:44;102447.03;;;5.35;79.66
38466;BME280;24244;51.950;5.902;2023-01-27T01:56:17;102453.72;;;5.28;79.91
38466;BME280;24244;51.950;5.902;2023-01-27T01:58:46;102453.00;;;5.26;79.80
38466;BME280;24244;51.950;5.902;2023-01-27T02:01:17;102451.31;;;5.25;79.74
38466;BME280;24244;51.950;5.902;2023-01-27T02:03:48;102450.47;;;5.24;79.62
38466;BME280;24244;51.950;5.902;2023-01-27T02:06:18;102448.03;;;5.21;79.87
38466;BME280;24244;51.950;5.902;2023-01-27T02:08:48;102454.16;;;5.22;79.64
38466;BME280;24244;51.950;5.902;2023-01-27T02:11:16;102457.03;;;5.19;80.09
38466;BME280;24244;51.950;5.902;2023-01-27T02:13:44;102454.25;;;5.20;80.21
38466;BME280;24244;51.950;5.902;2023-01-27T02:16:13;102450.69;;;5.21;79.96
38466;BME280;24244;51.950;5.902;2023-01-27T02:18:40;102453.22;;;5.23;79.90
38466;BME280;24244;51.950;5.902;2023-01-27T02:21:07;102459.44;;;5.22;79.73
38466;BME280;24244;51.950;5.902;2023-01-27T02:23:51;102458.69;;;5.20;79.89
38466;BME280;24244;51.950;5.902;2023-01-27T02:26:24;102465.03;;;5.17;80.30
38466;BME280;24244;51.950;5.902;2023-01-27T02:28:56;102453.66;;;5.17;80.04
38466;BME280;24244;51.950;5.902;2023-01-27T02:31:24;102463.34;;;5.16;79.96
38466;BME280;24244;51.950;5.902;2023-01-27T02:33:53;102467.78;;;5.16;80.30
38466;BME280;24244;51.950;5.902;2023-01-27T02:36:23;102466.72;;;5.18;80.37
38466;BME280;24244;51.950;5.902;2023-01-27T02:38:54;102470.31;;;5.17;80.30
38466;BME280;24244;51.950;5.902;2023-01-27T02:41:27;102455.34;;;5.18;80.16
38466;BME280;24244;51.950;5.902;2023-01-27T02:43:58;102466.00;;;5.16;80.38
38466;BME280;24244;51.950;5.902;2023-01-27T02:46:26;102467.78;;;5.16;80.61
38466;BME280;24244;51.950;5.902;2023-01-27T02:48:53;102466.84;;;5.17;80.37
38466;BME280;24244;51.950;5.902;2023-01-27T02:51:20;102478.81;;;5.21;80.43
38466;BME280;24244;51.950;5.902;2023-01-27T02:53:48;102469.22;;;5.20;80.65
38466;BME280;24244;51.950;5.902;2023-01-27T02:56:15;102470.72;;;5.24;80.59
38466;BME280;24244;51.950;5.902;2023-01-27T02:58:43;102468.06;;;5.24;80.52
38466;BME280;24244;51.950;5.902;2023-01-27T03:01:10;102469.97;;;5.22;80.71
38466;BME280;24244;51.950;5.902;2023-01-27T03:03:37;102473.34;;;5.24;80.54
38466;BME280;24244;51.950;5.902;2023-01-27T03:06:13;102470.63;;;5.25;80.70
38466;BME280;24244;51.950;5.902;2023-01-27T03:08:40;102489.16;;;5.24;80.61
38466;BME280;24244;51.950;5.902;2023-01-27T03:11:08;102490.13;;;5.23;80.74
38466;BME280;24244;51.950;5.902;2023-01-27T03:13:35;102482.31;;;5.21;80.85
38466;BME280;24244;51.950;5.902;2023-01-27T03:16:06;102484.19;;;5.19;80.69
38466;BME280;24244;51.950;5.902;2023-01-27T03:18:52;102487.19;;;5.15;81.22
38466;BME280;24244;51.950;5.902;2023-01-27T03:21:22;102483.78;;;5.12;81.19
38466;BME280;24244;51.950;5.902;2023-01-27T03:23:49;102490.84;;;5.12;81.01
38466;BME280;24244;51.950;5.902;2023-01-27T03:26:15;102487.38;;;5.11;81.38
38466;BME280;24244;51.950;5.902;2023-01-27T03:28:42;102482.09;;;5.11;81.46
38466;BME280;24244;51.950;5.902;2023-01-27T03:31:31;102495.81;;;5.17;81.25
38466;BME280;24244;51.950;5.902;2023-01-27T03:33:58;102492.94;;;5.20;80.97
38466;BME280;24244;51.950;5.902;2023-01-27T03:36:25;102495.38;;;5.23;80.83
38466;BME280;24244;51.950;5.902;2023-01-27T03:39:10;102498.34;;;5.18;80.98
38466;BME280;24244;51.950;5.902;2023-01-27T03:41:55;102496.66;;;5.17;81.18
38466;BME280;24244;51.950;5.902;2023-01-27T03:44:40;102499.41;;;5.16;80.77
38466;BME280;24244;51.950;5.902;2023-01-27T03:47:27;102506.38;;;5.17;80.83
38466;BME280;24244;51.950;5.902;2023-01-27T03:49:54;102502.66;;;5.19;80.90
38466;BME280;24244;51.950;5.902;2023-01-27T03:52:21;102504.47;;;5.19;80.75
38466;BME280;24244;51.950;5.902;2023-01-27T03:54:47;102502.88;;;5.16;80.74
38466;BME280;24244;51.950;5.902;2023-01-27T03:57:14;102485.28;;;5.17;80.76
38466;BME280;24244;51.950;5.902;2023-01-27T03:59:41;102489.59;;;5.18;80.82
38466;BME280;24244;51.950;5.902;2023-01-27T04:02:08;102499.22;;;5.19;80.53
38466;BME280;24244;51.950;5.902;2023-01-27T04:04:54;102499.91;;;5.21;80.77
38466;BME280;24244;51.950;5.902;2023-01-27T04:07:40;102498.88;;;5.23;80.31
38466;BME280;24244;51.950;5.902;2023-01-27T04:10:08;102496.34;;;5.22;80.32
38466;BME280;24244;51.950;5.902;2023-01-27T04:12:36;102500.88;;;5.20;80.17
38466;BME280;24244;51.950;5.902;2023-01-27T04:15:03;102498.13;;;5.21;79.97
38466;BME280;24244;51.950;5.902;2023-01-27T04:17:30;102501.84;;;5.19;80.06
38466;BME280;24244;51.950;5.902;2023-01-27T04:20:07;102500.75;;;5.21;80.12
38466;BME280;24244;51.950;5.902;2023-01-27T04:22:34;102497.91;;;5.24;79.76
38466;BME280;24244;51.950;5.902;2023-01-27T04:25:00;102501.25;;;5.26;79.88
38466;BME280;24244;51.950;5.902;2023-01-27T04:27:27;102512.66;;;5.27;80.06
38466;BME280;24244;51.950;5.902;2023-01-27T04:29:54;102517.94;;;5.27;79.88
38466;BME280;24244;51.950;5.902;2023-01-27T04:32:21;102515.28;;;5.27;80.01
38466;BME280;24244;51.950;5.902;2023-01-27T04:34:48;102515.53;;;5.24;79.65
38466;BME280;24244;51.950;5.902;2023-01-27T04:37:16;102518.91;;;5.26;79.91
38466;BME280;24244;51.950;5.902;2023-01-27T04:39:43;102521.53;;;5.26;79.80
38466;BME280;24244;51.950;5.902;2023-01-27T04:42:11;102521.66;;;5.24;79.76
38466;BME280;24244;51.950;5.902;2023-01-27T04:44:38;102522.50;;;5.25;79.79
38466;BME280;24244;51.950;5.902;2023-01-27T04:47:04;102522.16;;;5.29;79.70
38466;BME280;24244;51.950;5.902;2023-01-27T04:49:31;102526.25;;;5.33;79.71
38466;BME280;24244;51.950;5.902;2023-01-27T04:51:58;102529.72;;;5.34;79.68
38466;BME280;24244;51.950;5.902;2023-01-27T04:54:26;102523.59;;;5.33;79.69
38466;BME280;24244;51.950;5.902;2023-01-27T04:56:56;102525.28;;;5.34;79.90
38466;BME280;24244;51.950;5.902;2023-01-27T04:59:23;102533.00;;;5.37;79.78
38466;BME280;24244;51.950;5.902;2023-01-27T05:01:50;102525.09;;;5.37;79.54
38466;BME280;24244;51.950;5.902;2023-01-27T05:04:17;102530.47;;;5.36;79.40
38466;BME280;24244;51.950;5.902;2023-01-27T05:06:45;102526.03;;;5.36;79.72
38466;BME280;24244;51.950;5.902;2023-01-27T05:09:12;102528.69;;;5.36;79.45
38466;BME280;24244;51.950;5.902;2023-01-27T05:11:40;102531.22;;;5.38;79.82
38466;BME280;24244;51.950;5.902;2023-01-27T05:14:07;102534.59;;;5.40;79.78
38466;BME280;24244;51.950;5.902;2023-01-27T05:16:34;102532.78;;;5.40;79.60
38466;BME280;24244;51.950;5.902;2023-01-27T05:19:01;102525.94;;;5.38;79.49
38466;BME280;24244;51.950;5.902;2023-01-27T05:21:28;102526.78;;;5.38;79.66
38466;BME280;24244;51.950;5.902;2023-01-27T05:23:56;102534.59;;;5.40;79.41
38466;BME280;24244;51.950;5.902;2023-01-27T05:26:25;102527.63;;;5.39;79.35
38466;BME280;24244;51.950;5.902;2023-01-27T05:28:56;102530.38;;;5.37;79.13
38466;BME280;24244;51.950;5.902;2023-01-27T05:31:25;102539.88;;;5.40;79.45
38466;BME280;24244;51.950;5.902;2023-01-27T05:33:53;102529.19;;;5.41;79.19
38466;BME280;24244;51.950;5.902;2023-01-27T05:36:21;102530.78;;;5.44;79.47
38466;BME280;24244;51.950;5.902;2023-01-27T05:38:49;102529.81;;;5.45;79.40
38466;BME280;24244;51.950;5.902;2023-01-27T05:41:17;102525.28;;;5.47;79.17
38466;BME280;24244;51.950;5.902;2023-01-27T05:43:46;102532.22;;;5.48;79.20
38466;BME280;24244;51.950;5.902;2023-01-27T05:46:16;102539.19;;;5.49;79.19
38466;BME280;24244;51.950;5.902;2023-01-27T05:48:44;102536.56;;;5.49;79.34
38466;BME280;24244;51.950;5.902;2023-01-27T05:51:12;102535.59;;;5.50;79.37
38466;BME280;24244;51.950;5.902;2023-01-27T05:53:41;102543.50;;;5.50;79.04
38466;BME280;24244;51.950;5.902;2023-01-27T05:56:09;102553.31;;;5.48;79.03
38466;BME280;24244;51.950;5.902;2023-01-27T05:58:36;102546.25;;;5.48;79.11
38466;BME280;24244;51.950;5.902;2023-01-27T06:01:08;102555.00;;;5.49;79.04
38466;BME280;24244;51.950;5.902;2023-01-27T06:03:37;102552.38;;;5.49;78.77
38466;BME280;24244;51.950;5.902;2023-01-27T06:06:06;102552.38;;;5.49;79.10
38466;BME280;24244;51.950;5.902;2023-01-27T06:08:34;102557.66;;;5.49;79.02
38466;BME280;24244;51.950;5.902;2023-01-27T06:11:02;102556.94;;;5.47;78.96
38466;BME280;24244;51.950;5.902;2023-01-27T06:13:29;102556.94;;;5.47;79.09
38466;BME280;24244;51.950;5.902;2023-01-27T06:15:56;102566.63;;;5.46;78.91
38466;BME280;24244;51.950;5.902;2023-01-27T06:18:23;102567.50;;;5.47;79.17
38466;BME280;24244;51.950;5.902;2023-01-27T06:20:51;102576.13;;;5.49;79.29
38466;BME280;24244;51.950;5.902;2023-01-27T06:23:18;102570.94;;;5.47;78.92
38466;BME280;24244;51.950;5.902;2023-01-27T06:25:47;102573.56;;;5.47;79.05
38466;BME280;24244;51.950;5.902;2023-01-27T06:28:16;102582.34;;;5.48;78.83
38466;BME280;24244;51.950;5.902;2023-01-27T06:30:55;102577.28;;;5.45;78.97
38466;BME280;24244;51.950;5.902;2023-01-27T06:33:22;102577.28;;;5.45;78.96
38466;BME280;24244;51.950;5.902;2023-01-27T06:35:50;102578.25;;;5.44;79.00
38466;BME280;24244;51.950;5.902;2023-01-27T06:38:17;102588.28;;;5.39;78.76
38466;BME280;24244;51.950;5.902;2023-01-27T06:40:44;102581.31;;;5.38;78.91
38466;BME280;24244;51.950;5.902;2023-01-27T06:43:11;102584.91;;;5.37;78.88
38466;BME280;24244;51.950;5.902;2023-01-27T06:45:39;102584.16;;;5.35;79.05
38466;BME280;24244;51.950;5.902;2023-01-27T06:48:07;102586.78;;;5.35;78.90
38466;BME280;24244;51.950;5.902;2023-01-27T06:50:35;102592.91;;;5.35;79.02
38466;BME280;24244;51.950;5.902;2023-01-27T06:53:05;102586.69;;;5.36;78.88
38466;BME280;24244;51.950;5.902;2023-01-27T06:55:33;102586.78;;;5.35;78.85
38466;BME280;24244;51.950;5.902;2023-01-27T06:58:00;102582.47;;;5.34;78.83
38466;BME280;24244;51.950;5.902;2023-01-27T07:00:27;102585.09;;;5.34;78.77
38466;BME280;24244;51.950;5.902;2023-01-27T07:02:54;102583.44;;;5.33;78.84
38466;BME280;24244;51.950;5.902;2023-01-27T07:05:21;102586.38;;;5.28;78.58
38466;BME280;24244;51.950;5.902;2023-01-27T07:07:48;102590.09;;;5.26;78.85
38466;BME280;24244;51.950;5.902;2023-01-27T07:10:17;102587.56;;;5.24;78.72
38466;BME280;24244;51.950;5.902;2023-01-27T07:12:44;102585.97;;;5.22;78.72
38466;BME280;24244;51.950;5.902;2023-01-27T07:15:11;102593.25;;;5.18;78.67
38466;BME280;24244;51.950;5.902;2023-01-27T07:17:38;102594.19;;;5.17;78.40
38466;BME280;24244;51.950;5.902;2023-01-27T07:20:07;102599.56;;;5.16;78.90
38466;BME280;24244;51.950;5.902;2023-01-27T07:22:35;102602.31;;;5.14;78.95
38466;BME280;24244;51.950;5.902;2023-01-27T07:25:02;102612.94;;;5.12;78.74
38466;BME280;24244;51.950;5.902;2023-01-27T07:27:35;102607.06;;;5.09;78.88
38466;BME280;24244;51.950;5.902;2023-01-27T07:30:03;102614.22;;;5.07;78.88
38466;BME280;24244;51.950;5.902;2023-01-27T07:32:30;102615.16;;;5.06;79.12
38466;BME280;24244;51.950;5.902;2023-01-27T07:34:56;102617.91;;;5.04;78.86
38466;BME280;24244;51.950;5.902;2023-01-27T07:37:23;102622.34;;;5.04;78.98
38466;BME280;24244;51.950;5.902;2023-01-27T07:39:50;102630.25;;;5.04;78.95
38466;BME280;24244;51.950;5.902;2023-01-27T07:42:17;102631.22;;;5.03;78.74
38466;BME280;24244;51.950;5.902;2023-01-27T07:44:45;102630.47;;;5.01;79.13
38466;BME280;24244;51.950;5.902;2023-01-27T07:47:15;102630.56;;;4.99;78.91
38466;BME280;24244;51.950;5.902;2023-01-27T07:49:43;102642.69;;;5.02;79.04
38466;BME280;24244;51.950;5.902;2023-01-27T07:52:10;102627.72;;;5.02;78.96
38466;BME280;24244;51.950;5.902;2023-01-27T07:54:37;102632.16;;;5.02;78.91
38466;BME280;24244;51.950;5.902;2023-01-27T07:57:03;102633.00;;;5.02;78.88
38466;BME280;24244;51.950;5.902;2023-01-27T07:59:30;102636.47;;;5.03;78.86
38466;BME280;24244;51.950;5.902;2023-01-27T08:01:58;102634.69;;;5.03;78.85
38466;BME280;24244;51.950;5.902;2023-01-27T08:04:25;102640.06;;;5.02;78.70
38466;BME280;24244;51.950;5.902;2023-01-27T08:06:52;102641.19;;;4.98;78.94
38466;BME280;24244;51.950;5.902;2023-01-27T08:09:19;102637.72;;;4.97;78.72
38466;BME280;24244;51.950;5.902;2023-01-27T08:11:46;102645.75;;;4.96;78.63
38466;BME280;24244;51.950;5.902;2023-01-27T08:14:13;102649.31;;;4.95;78.72
38466;BME280;24244;51.950;5.902;2023-01-27T08:16:39;102648.38;;;4.96;78.86
38466;BME280;24244;51.950;5.902;2023-01-27T08:19:08;102641.31;;;4.96;78.76
38466;BME280;24244;51.950;5.902;2023-01-27T08:21:34;102655.44;;;4.95;78.78
38466;BME280;24244;51.950;5.902;2023-01-27T08:24:01;102651.97;;;4.95;78.49
38466;BME280;24244;51.950;5.902;2023-01-27T08:26:28;102666.91;;;4.94;78.74
38466;BME280;24244;51.950;5.902;2023-01-27T08:28:55;102669.56;;;4.94;78.33
38466;BME280;24244;51.950;5.902;2023-01-27T08:31:22;102676.28;;;4.98;78.09
38466;BME280;24244;51.950;5.902;2023-01-27T08:33:50;102674.59;;;4.97;78.22
38466;BME280;24244;51.950;5.902;2023-01-27T08:36:21;102679.06;;;4.97;78.21
38466;BME280;24244;51.950;5.902;2023-01-27T08:38:48;102678.22;;;4.96;78.17
38466;BME280;24244;51.950;5.902;2023-01-27T08:41:19;102688.53;;;4.99;77.91
38466;BME280;24244;51.950;5.902;2023-01-27T08:43:47;102685.13;;;4.97;77.75
38466;BME280;24244;51.950;5.902;2023-01-27T08:46:14;102685.88;;;4.99;78.04
38466;BME280;24244;51.950;5.902;2023-01-27T08:48:41;102683.16;;;5.01;77.97
38466;BME280;24244;51.950;5.902;2023-01-27T08:51:10;102682.41;;;4.99;78.34
38466;BME280;24244;51.950;5.902;2023-01-27T08:53:39;102685.03;;;4.99;78.20
38466;BME280;24244;51.950;5.902;2023-01-27T08:56:09;102691.16;;;4.99;78.12
38466;BME280;24244;51.950;5.902;2023-01-27T08:58:36;102691.06;;;5.01;78.21
38466;BME280;24244;51.950;5.902;2023-01-27T09:01:04;102694.66;;;5.00;78.14
38466;BME280;24244;51.950;5.902;2023-01-27T09:03:33;102689.38;;;5.00;78.18
38466;BME280;24244;51.950;5.902;2023-01-27T09:06:00;102691.91;;;5.01;78.37
38466;BME280;24244;51.950;5.902;2023-01-27T09:08:27;102692.53;;;5.05;78.28
38466;BME280;24244;51.950;5.902;2023-01-27T09:10:56;102689.72;;;5.08;78.04
38466;BME280;24244;51.950;5.902;2023-01-27T09:13:22;102690.66;;;5.07;78.04
38466;BME280;24244;51.950;5.902;2023-01-27T09:15:50;102705.53;;;5.08;78.10
38466;BME280;24244;51.950;5.902;2023-01-27T09:18:18;102710.03;;;5.06;77.90
38466;BME280;24244;51.950;5.902;2023-01-27T09:20:44;102714.47;;;5.05;78.05
38466;BME280;24244;51.950;5.902;2023-01-27T09:23:11;102714.38;;;5.07;78.13
38466;BME280;24244;51.950;5.902;2023-01-27T09:25:38;102717.94;;;5.06;78.17
38466;BME280;24244;51.950;5.902;2023-01-27T09:28:06;102725.75;;;5.07;78.40
38466;BME280;24244;51.950;5.902;2023-01-27T09:30:42;102731.78;;;5.09;78.24
38466;BME280;24244;51.950;5.902;2023-01-27T09:33:11;102731.56;;;5.12;78.17
38466;BME280;24244;51.950;5.902;2023-01-27T09:35:44;102733.47;;;5.10;78.21
38466;BME280;24244;51.950;5.902;2023-01-27T09:38:13;102731.13;;;5.06;77.86
38466;BME280;24244;51.950;5.902;2023-01-27T09:40:58;102743.47;;;5.05;78.14
38466;BME280;24244;51.950;5.902;2023-01-27T09:43:55;102742.31;;;5.09;78.17
38466;BME280;24244;51.950;5.902;2023-01-27T09:49:50;102743.19;;;5.10;78.20
38466;BME280;24244;51.950;5.902;2023-01-27T09:55:21;102730.34;;;5.18;78.07
38466;BME280;24244;51.950;5.902;2023-01-27T09:57:55;102732.00;;;5.19;78.28
38466;BME280;24244;51.950;5.902;2023-01-27T10:00:33;102735.47;;;5.20;78.37
38466;BME280;24244;51.950;5.902;2023-01-27T10:03:20;102733.50;;;5.23;78.15
38466;BME280;24244;51.950;5.902;2023-01-27T10:06:17;102741.31;;;5.25;78.09
38466;BME280;24244;51.950;5.902;2023-01-27T10:11:44;102734.13;;;5.27;78.14
38466;BME280;24244;51.950;5.902;2023-01-27T10:14:25;102734.25;;;5.25;78.01
38466;BME280;24244;51.950;5.902;2023-01-27T10:17:14;102734.88;;;5.29;78.32
38466;BME280;24244;51.950;5.902;2023-01-27T10:19:54;102740.13;;;5.29;78.29
38466;BME280;24244;51.950;5.902;2023-01-27T10:22:29;102735.63;;;5.31;78.27
38466;BME280;24244;51.950;5.902;2023-01-27T10:25:09;102740.66;;;5.34;78.29
38466;BME280;24244;51.950;5.902;2023-01-27T10:27:44;102728.22;;;5.36;78.14
38466;BME280;24244;51.950;5.902;2023-01-27T10:30:15;102723.69;;;5.38;78.18
38466;BME280;24244;51.950;5.902;2023-01-27T10:32:53;102722.00;;;5.37;78.16
38466;BME280;24244;51.950;5.902;2023-01-27T10:35:28;102723.47;;;5.41;78.37
38466;BME280;24244;51.950;5.902;2023-01-27T10:38:04;102721.69;;;5.41;78.15
38466;BME280;24244;51.950;5.902;2023-01-27T10:40:38;102719.19;;;5.40;78.03
38466;BME280;24244;51.950;5.902;2023-01-27T10:43:12;102721.06;;;5.38;78.12
38466;BME280;24244;51.950;5.902;2023-01-27T10:45:47;102714.00;;;5.38;77.96
38466;BME280;24244;51.950;5.902;2023-01-27T10:48:26;102726.13;;;5.41;78.10
38466;BME280;24244;51.950;5.902;2023-01-27T10:50:58;102724.22;;;5.43;78.03
38466;BME280;24244;51.950;5.902;2023-01-27T10:53:31;102720.66;;;5.44;78.22
38466;BME280;24244;51.950;5.902;2023-01-27T10:56:02;102724.97;;;5.45;78.07
38466;BME280;24244;51.950;5.902;2023-01-27T10:58:40;102731.94;;;5.46;77.84
38466;BME280;24244;51.950;5.902;2023-01-27T11:01:12;102720.66;;;5.44;78.17
38466;BME280;24244;51.950;5.902;2023-01-27T11:03:52;102723.28;;;5.44;78.00
38466;BME280;24244;51.950;5.902;2023-01-27T11:06:21;102725.06;;;5.43;78.06
38466;BME280;24244;51.950;5.902;2023-01-27T11:08:52;102720.84;;;5.41;77.58
38466;BME280;24244;51.950;5.902;2023-01-27T11:11:23;102729.72;;;5.40;77.99
38466;BME280;24244;51.950;5.902;2023-01-27T11:14:20;102721.50;;;5.44;77.93
38466;BME280;24244;51.950;5.902;2023-01-27T11:16:51;102717.06;;;5.45;77.73
38466;BME280;24244;51.950;5.902;2023-01-27T11:19:30;102722.09;;;5.48;77.73
38466;BME280;24244;51.950;5.902;2023-01-27T11:21:58;102715.03;;;5.48;77.59
38466;BME280;24244;51.950;5.902;2023-01-27T11:24:42;102713.06;;;5.52;77.36
38466;BME280;24244;51.950;5.902;2023-01-27T11:27:18;102705.03;;;5.54;77.18
38466;BME280;24244;51.950;5.902;2023-01-27T11:29:52;102707.44;;;5.57;77.35
38466;BME280;24244;51.950;5.902;2023-01-27T11:32:30;102706.94;;;5.64;77.45
38466;BME280;24244;51.950;5.902;2023-01-27T11:35:04;102702.41;;;5.66;77.23
38466;BME280;24244;51.950;5.902;2023-01-27T11:37:33;102697.88;;;5.68;77.23
38466;BME280;24244;51.950;5.902;2023-01-27T11:40:01;102703.84;;;5.70;77.48
38466;BME280;24244;51.950;5.902;2023-01-27T11:42:31;102696.59;;;5.74;77.28
38466;BME280;24244;51.950;5.902;2023-01-27T11:44:59;102696.25;;;5.78;77.11
38466;BME280;24244;51.950;5.902;2023-01-27T11:47:29;102692.47;;;5.82;76.82
38466;BME280;24244;51.950;5.902;2023-01-27T11:49:59;102685.34;;;5.83;76.76
38466;BME280;24244;51.950;5.902;2023-01-27T11:52:27;102691.22;;;5.88;76.96
38466;BME280;24244;51.950;5.902;2023-01-27T11:54:59;102676.22;;;5.88;76.64
38466;BME280;24244;51.950;5.902;2023-01-27T11:57:30;102684.75;;;5.92;76.97
38466;BME280;24244;51.950;5.902;2023-01-27T11:59:59;102684.84;;;5.90;75.93
38466;BME280;24244;51.950;5.902;2023-01-27T12:02:32;102674.28;;;5.90;76.21
38466;BME280;24244;51.950;5.902;2023-01-27T12:05:04;102680.22;;;5.94;76.30
38466;BME280;24244;51.950;5.902;2023-01-27T12:07:43;102678.19;;;5.98;76.37
38466;BME280;24244;51.950;5.902;2023-01-27T12:10:28;102674.50;;;6.00;76.12
38466;BME280;24244;51.950;5.902;2023-01-27T12:12:56;102669.13;;;6.02;76.39
38466;BME280;24244;51.950;5.902;2023-01-27T12:15:25;102670.47;;;6.07;76.63
38466;BME280;24244;51.950;5.902;2023-01-27T12:17:56;102672.16;;;6.08;76.30
38466;BME280;24244;51.950;5.902;2023-01-27T12:20:33;102671.81;;;6.13;76.18
38466;BME280;24244;51.950;5.902;2023-01-27T12:23:13;102663.69;;;6.16;76.42
38466;BME280;24244;51.950;5.902;2023-01-27T12:25:44;102659.16;;;6.18;76.32
38466;BME280;24244;51.950;5.902;2023-01-27T12:28:22;102658.16;;;6.19;76.02
38466;BME280;24244;51.950;5.902;2023-01-27T12:30:51;102655.53;;;6.19;76.25
38466;BME280;24244;51.950;5.902;2023-01-27T12:33:23;102655.31;;;6.22;76.32
38466;BME280;24244;51.950;5.902;2023-01-27T12:35:56;102662.41;;;6.21;75.72
38466;BME280;24244;51.950;5.902;2023-01-27T12:38:26;102657.97;;;6.22;75.71
38466;BME280;24244;51.950;5.902;2023-01-27T12:40:58;102647.41;;;6.22;75.52
38466;BME280;24244;51.950;5.902;2023-01-27T12:43:27;102649.69;;;6.26;75.79
38466;BME280;24244;51.950;5.902;2023-01-27T12:46:14;102647.78;;;6.28;75.35
38466;BME280;24244;51.950;5.902;2023-01-27T12:48:46;102647.56;;;6.32;75.53
38466;BME280;24244;51.950;5.902;2023-01-27T12:51:15;102645.78;;;6.32;75.67
38466;BME280;24244;51.950;5.902;2023-01-27T12:53:43;102637.88;;;6.32;75.34
38466;BME280;24244;51.950;5.902;2023-01-27T12:56:12;102644.69;;;6.35;75.43
38466;BME280;24244;51.950;5.902;2023-01-27T12:58:42;102648.28;;;6.34;75.15
38466;BME280;24244;51.950;5.902;2023-01-27T13:01:26;102658.25;;;6.30;75.46
38466;BME280;24244;51.950;5.902;2023-01-27T13:03:56;102654.03;;;6.27;75.06
38466;BME280;24244;51.950;5.902;2023-01-27T13:06:30;102654.13;;;6.26;75.03
38466;BME280;24244;51.950;5.902;2023-01-27T13:09:01;102654.97;;;6.26;75.49
38466;BME280;24244;51.950;5.902;2023-01-27T13:11:32;102654.88;;;6.28;75.68
38466;BME280;24244;51.950;5.902;2023-01-27T13:14:00;102647.91;;;6.27;75.42
38466;BME280;24244;51.950;5.902;2023-01-27T13:16:30;102654.75;;;6.29;75.61
38466;BME280;24244;51.950;5.902;2023-01-27T13:18:59;102660.16;;;6.28;75.16
38466;BME280;24244;51.950;5.902;2023-01-27T13:21:30;102657.63;;;6.26;75.41
38466;BME280;24244;51.950;5.902;2023-01-27T13:24:00;102653.81;;;6.31;75.71
38466;BME280;24244;51.950;5.902;2023-01-27T13:26:30;102651.78;;;6.34;75.57